Time;durP1;ratioP1;P1;durP2;ratioP2;P2;SDS_P1;SDS_P2;PMS_P1;PMS_P2;Temp;Humidity;BMP_temperature;BMP_pressure;BME280_temperature;BME280_humidity;BME280_pressure;Samples;Min_cycle;Max_cycle;Signal;HPM_P1;HPM_P2
2022/01/03 00:02:29;;;;;;;9.20;6.07;;;;;;;-0.57;86.48;100430.41;10417607;28;20156;-77
2022/01/03 00:07:36;;;;;;;8.88;6.10;;;;;;;-0.75;85.75;100401.06;10418904;28;20187;-77
2022/01/03 00:12:38;;;;;;;10.27;7.40;;;;;;;-0.12;86.38;100492.00;10418227;28;20496;-77
2022/01/03 00:17:39;;;;;;;9.32;6.53;;;;;;;0.16;87.04;100537.25;10417578;28;20103;-77
2022/01/03 00:23:01;;;;;;;11.32;7.55;;;;;;;0.21;87.02;100545.66;10418260;28;20048;-77
2022/01/03 00:28:12;;;;;;;10.77;6.82;;;;;;;-0.33;86.08;100483.72;10417796;28;20087;-77
2022/01/03 00:33:14;;;;;;;11.15;6.88;;;;;;;-1.36;86.56;100309.19;10417915;28;20041;-79
2022/01/03 00:38:18;;;;;;;13.07;6.15;;;;;;;-0.71;86.50;100436.50;10418008;28;20409;-79
2022/01/03 00:43:19;;;;;;;9.40;6.50;;;;;;;-0.03;86.66;100561.94;10416889;28;20045;-79
2022/01/03 00:48:21;;;;;;;10.88;6.78;;;;;;;-0.36;87.11;100490.88;10417149;28;20053;-79
2022/01/03 00:53:22;;;;;;;11.38;7.05;;;;;;;-1.16;87.05;100373.16;10415576;28;20041;-78
2022/01/03 00:58:27;;;;;;;7.85;5.05;;;;;;;-1.14;86.21;100376.47;10386928;28;20132;-79
2022/01/03 01:03:33;;;;;;;8.32;5.25;;;;;;;-0.17;85.78;100561.09;10389035;28;20040;-79
2022/01/03 01:08:36;;;;;;;7.68;4.63;;;;;;;-2.07;85.89;100263.03;10414790;28;20417;-78
2022/01/03 01:13:39;;;;;;;9.05;5.07;;;;;;;-0.56;86.23;100506.00;10396820;28;20125;-78
2022/01/03 01:18:41;;;;;;;6.70;4.63;;;;;;;-0.67;86.31;100502.34;10374399;28;20038;-78
2022/01/03 01:23:43;;;;;;;6.53;3.40;;;;;;;-0.58;86.32;100527.88;10375848;28;20125;-79
2022/01/03 01:28:44;;;;;;;6.45;4.03;;;;;;;-0.79;85.64;100501.31;10373262;28;20107;-79
2022/01/03 01:33:46;;;;;;;5.97;3.90;;;;;;;-1.34;85.61;100414.19;10373736;28;20100;-78
2022/01/03 01:38:49;;;;;;;7.55;4.20;;;;;;;-0.49;85.90;100582.13;10374259;28;20048;-80
2022/01/03 01:43:51;;;;;;;13.10;6.78;;;;;;;-1.50;85.40;100403.78;10374815;28;20088;-78
2022/01/03 01:48:54;;;;;;;6.80;4.13;;;;;;;-1.44;85.69;100423.44;10374003;28;20058;-78
2022/01/03 01:53:56;;;;;;;6.85;4.55;;;;;;;-1.38;86.02;100446.53;10374311;28;20042;-80
2022/01/03 01:59:39;;;;;;;6.10;4.18;;;;;;;-0.49;86.28;100584.75;10373070;28;20460;-78
2022/01/03 02:05:04;;;;;;;5.97;4.30;;;;;;;-0.42;86.88;100598.25;10347247;28;20049;-78
2022/01/03 02:10:05;;;;;;;8.15;5.30;;;;;;;-0.42;86.59;100593.03;10372795;28;20512;-79
2022/01/03 02:15:11;;;;;;;9.70;4.80;;;;;;;-1.02;86.66;100500.91;10372186;28;20056;-79
2022/01/03 02:20:11;;;;;;;6.95;4.72;;;;;;;-0.42;85.77;100603.47;10372078;28;20059;-79
2022/01/03 02:25:16;;;;;;;7.47;4.53;;;;;;;-0.56;85.51;100605.16;10373263;28;20121;-80
2022/01/03 02:30:20;;;;;;;7.82;4.75;;;;;;;-1.54;84.83;100446.59;10372062;28;20041;-79
2022/01/03 02:35:22;;;;;;;7.03;4.35;;;;;;;-0.56;84.63;100615.59;10372107;28;20042;-79
2022/01/03 02:40:23;;;;;;;7.90;4.60;;;;;;;-0.97;84.39;100558.84;10371012;28;20045;-78
2022/01/03 02:45:25;;;;;;;7.72;4.78;;;;;;;-0.96;84.01;100555.31;10372047;28;20048;-78
2022/01/03 02:50:29;;;;;;;6.65;4.60;;;;;;;-1.29;83.56;100499.91;10372504;28;20054;-78
2022/01/03 02:55:30;;;;;;;7.25;5.00;;;;;;;-0.60;83.69;100623.66;10372189;28;20045;-78
2022/01/03 03:00:32;;;;;;;8.30;5.05;;;;;;;-0.56;83.94;100615.59;10372803;28;20073;-78
2022/01/03 03:05:32;;;;;;;6.63;4.60;;;;;;;-1.43;84.02;100464.22;10387020;28;20038;-78
2022/01/03 03:10:34;;;;;;;6.40;4.30;;;;;;;-1.27;84.44;100491.06;10386343;28;20046;-78
2022/01/03 03:15:35;;;;;;;7.18;4.40;;;;;;;-1.57;83.89;100445.94;10372237;28;20099;-78
2022/01/03 03:20:36;;;;;;;6.03;4.35;;;;;;;-0.56;83.92;100610.38;10377692;28;20048;-77
2022/01/03 03:25:37;;;;;;;6.63;4.40;;;;;;;-0.63;83.42;100601.19;10378709;28;20052;-77
2022/01/03 03:30:44;;;;;;;6.60;4.10;;;;;;;-2.20;83.04;100341.00;10379170;28;20067;-77
2022/01/03 03:35:46;;;;;;;6.00;4.05;;;;;;;-1.43;83.82;100466.84;10378819;28;20076;-77
2022/01/03 03:40:47;;;;;;;6.22;4.22;;;;;;;-2.15;83.36;100351.16;10379414;28;20478;-78
2022/01/03 03:45:48;;;;;;;7.90;4.15;;;;;;;-1.40;82.88;100467.50;10376933;28;20080;-78
2022/01/03 03:50:49;;;;;;;6.85;4.07;;;;;;;-1.07;83.54;100521.19;10377623;28;20073;-78
2022/01/03 03:55:50;;;;;;;6.53;4.22;;;;;;;-1.64;82.98;100424.63;10378719;28;20084;-78
2022/01/03 04:00:51;;;;;;;7.53;4.35;;;;;;;-1.31;83.60;100463.50;10378075;28;20038;-78
2022/01/03 04:05:52;;;;;;;6.40;4.25;;;;;;;-0.37;83.64;100623.16;10378769;28;20382;-78
2022/01/03 04:10:53;;;;;;;6.80;4.28;;;;;;;-0.39;83.53;100608.50;10378017;28;20410;-78
2022/01/03 04:15:54;;;;;;;7.03;4.38;;;;;;;-1.01;83.62;100484.34;10376833;28;20045;-77
2022/01/03 04:20:55;;;;;;;6.57;4.53;;;;;;;-0.62;83.47;100550.72;10377981;28;20038;-78
2022/01/03 04:25:57;;;;;;;7.07;4.80;;;;;;;-1.05;82.96;100476.78;10377688;28;20046;-78
2022/01/03 04:30:58;;;;;;;7.38;4.30;;;;;;;-1.19;83.39;100475.84;10402296;28;20049;-77
2022/01/03 04:35:59;;;;;;;7.00;4.20;;;;;;;-1.21;83.44;100476.84;10382722;28;20557;-78
2022/01/03 04:41:00;;;;;;;7.05;4.47;;;;;;;-0.81;84.11;100550.94;10375761;28;20421;-78
2022/01/03 04:46:02;;;;;;;6.43;4.28;;;;;;;-0.85;83.19;100539.03;10387701;28;20489;-78
2022/01/03 04:51:04;;;;;;;8.73;4.85;;;;;;;-0.89;83.66;100531.50;10398468;28;20048;-78
2022/01/03 04:56:05;;;;;;;7.65;4.70;;;;;;;-0.88;83.19;100548.81;10416092;28;20041;-78
2022/01/03 05:01:06;;;;;;;8.85;5.10;;;;;;;-0.93;83.51;100533.41;10417062;28;20041;-78
2022/01/03 05:06:07;;;;;;;6.85;4.47;;;;;;;-0.25;82.93;100639.88;10416334;28;20527;-77
2022/01/03 05:11:08;;;;;;;7.43;4.53;;;;;;;-0.90;83.48;100535.84;10416692;28;20044;-77
2022/01/03 05:16:09;;;;;;;8.32;5.13;;;;;;;-0.13;83.36;100670.47;10414782;28;20041;-79
2022/01/03 05:21:10;;;;;;;7.60;5.10;;;;;;;-0.77;83.22;100556.84;10415146;28;20064;-77
2022/01/03 05:26:12;;;;;;;10.68;6.00;;;;;;;-0.13;83.09;100661.78;10415201;28;20044;-78
2022/01/03 05:31:14;;;;;;;5.75;3.97;;;;;;;-1.55;82.29;100481.41;10415184;28;20041;-78
2022/01/03 05:36:14;;;;;;;6.13;3.85;;;;;;;-1.50;83.21;100521.03;10415237;28;20040;-78
2022/01/03 05:41:15;;;;;;;9.10;4.65;;;;;;;-1.28;83.47;100582.41;10413763;28;20405;-78
2022/01/03 05:46:16;;;;;;;6.32;3.55;;;;;;;-1.59;82.68;100537.19;10414403;28;20394;-78
2022/01/03 05:51:17;;;;;;;8.45;4.63;;;;;;;-1.14;83.26;100613.72;10415321;28;20060;-79
2022/01/03 05:56:18;;;;;;;7.63;4.43;;;;;;;-0.81;82.93;100649.22;10412273;28;20123;-78
2022/01/03 06:01:23;;;;;;;7.57;3.90;;;;;;;-0.57;82.05;100679.16;10433227;28;20103;-78
2022/01/03 06:06:53;;;;;;;6.80;3.85;;;;;;;-1.42;81.98;100544.91;10452726;28;20095;-78
2022/01/03 06:11:53;;;;;;;14.00;7.53;;;;;;;-0.76;82.08;100639.38;10454333;28;20048;-79
2022/01/03 06:16:54;;;;;;;7.47;4.60;;;;;;;-0.39;81.73;100692.91;10453554;28;20043;-78
2022/01/03 06:21:56;;;;;;;10.55;5.75;;;;;;;-0.79;81.70;100595.22;10439320;28;20045;-77
2022/01/03 06:26:57;;;;;;;8.25;4.95;;;;;;;-1.51;81.36;100448.19;10439670;28;20563;-77
2022/01/03 06:31:58;;;;;;;7.50;4.50;;;;;;;-0.30;81.73;100636.69;10431316;28;20131;-76
2022/01/03 06:36:59;;;;;;;7.32;4.38;;;;;;;-0.68;81.41;100548.47;10451307;28;20037;-78
2022/01/03 06:42:00;;;;;;;6.97;4.13;;;;;;;-0.34;81.08;100577.78;10417839;28;20045;-77
2022/01/03 06:47:01;;;;;;;8.07;4.63;;;;;;;0.17;80.70;100652.09;10446683;28;20092;-78
2022/01/03 06:52:02;;;;;;;9.50;5.50;;;;;;;-0.70;80.43;100485.09;10444830;28;20036;-75
2022/01/03 06:57:03;;;;;;;7.68;4.25;;;;;;;0.09;79.95;100622.16;10446093;28;20045;-74
2022/01/03 07:02:05;;;;;;;8.07;4.90;;;;;;;0.38;79.45;100615.13;10447292;28;20409;-78
2022/01/03 07:07:06;;;;;;;5.72;4.15;;;;;;;0.84;79.08;100602.59;10459943;28;20041;-79
2022/01/03 07:12:08;;;;;;;6.68;4.13;;;;;;;0.63;77.88;100557.75;10440753;28;20037;-78
2022/01/03 07:22:28;;;;;;;7.55;4.20;;;;;;;0.32;77.43;100569.31;10451588;28;20139;-81
2022/01/03 07:27:29;;;;;;;7.05;4.45;;;;;;;0.79;77.33;100593.38;10452875;28;20055;-79
2022/01/03 07:32:30;;;;;;;6.65;3.53;;;;;;;1.19;76.47;100588.97;10458631;28;20123;-79
2022/01/03 07:37:31;;;;;;;6.82;4.07;;;;;;;0.83;75.73;100492.84;10456432;28;20491;-79
2022/01/03 07:42:32;;;;;;;5.97;3.60;;;;;;;1.66;75.01;100584.09;10450379;28;20118;-88
2022/01/03 07:47:33;;;;;;;5.88;3.50;;;;;;;0.49;74.30;100392.31;10457285;28;20071;-81
2022/01/03 07:52:34;;;;;;;5.82;2.80;;;;;;;-0.04;73.52;100316.53;10459497;28;20044;-77
2022/01/03 07:57:35;;;;;;;4.43;2.80;;;;;;;1.09;72.42;100464.94;10458299;28;20056;-79
2022/01/03 08:02:38;;;;;;;4.60;2.75;;;;;;;1.29;69.45;100508.91;10458097;28;20036;-79
2022/01/03 08:07:40;;;;;;;4.50;3.30;;;;;;;1.49;72.01;100485.75;10450153;28;20152;-77
2022/01/03 08:12:42;;;;;;;4.85;2.72;;;;;;;1.79;70.28;100449.56;10438642;28;20041;-78
2022/01/03 08:17:46;;;;;;;4.38;2.60;;;;;;;2.28;69.02;100508.09;10443986;28;20056;-76
2022/01/03 08:22:47;;;;;;;4.40;3.28;;;;;;;2.12;69.80;100385.19;10417563;28;20045;-78
2022/01/03 08:27:48;;;;;;;5.57;3.22;;;;;;;3.09;69.12;100502.09;10426685;28;20055;-81
2022/01/03 08:32:49;;;;;;;5.75;3.13;;;;;;;2.82;69.48;100446.47;10435293;28;20045;-89
2022/01/03 08:37:52;;;;;;;10.85;5.20;;;;;;;2.25;68.73;100409.56;10429386;28;20654;-82
2022/01/03 08:42:53;;;;;;;4.00;2.75;;;;;;;2.54;69.40;100455.53;10420422;28;20046;-77
2022/01/03 08:47:54;;;;;;;6.20;3.20;;;;;;;2.24;70.19;100392.16;10409361;28;20106;-77
2022/01/03 08:52:55;;;;;;;4.88;2.88;;;;;;;2.77;70.25;100441.53;10417785;28;20168;-76
2022/01/03 08:57:56;;;;;;;4.28;2.60;;;;;;;2.63;68.73;100421.63;10425388;28;20044;-76
2022/01/03 09:02:57;;;;;;;4.35;2.60;;;;;;;2.34;69.69;100375.75;10426585;28;20041;-80
2022/01/03 09:07:57;;;;;;;6.45;3.17;;;;;;;2.68;69.92;100414.22;10415093;28;20111;-78
2022/01/03 09:12:58;;;;;;;4.63;2.80;;;;;;;2.36;68.04;100272.44;10437466;28;20047;-84
2022/01/03 09:17:59;;;;;;;3.80;2.63;;;;;;;3.51;66.82;100373.69;10415172;28;20056;-78
2022/01/03 09:23:08;;;;;;;5.40;3.58;;;;;;;3.30;65.76;100279.09;10423941;28;20041;-76
2022/01/03 09:33:29;;;;;;;4.72;3.00;;;;;;;4.11;65.94;100377.59;10430813;28;20077;-76
2022/01/03 09:38:30;;;;;;;5.05;3.33;;;;;;;3.31;66.44;100324.56;10427618;28;20068;-76
2022/01/03 09:43:48;;;;;;;4.53;3.00;;;;;;;3.26;65.84;100384.47;10440319;28;20041;-74
2022/01/03 09:48:52;;;;;;;7.05;3.20;;;;;;;2.85;67.27;100347.38;10455814;28;20447;-74
2022/01/03 09:53:56;;;;;;;5.45;2.58;;;;;;;2.96;66.91;100354.38;10456311;28;20460;-76
2022/01/03 09:59:00;;;;;;;4.82;3.00;;;;;;;2.91;68.13;100346.06;10454940;28;20124;-73
2022/01/03 10:04:02;;;;;;;3.50;2.63;;;;;;;2.90;67.01;100339.97;10454947;28;20577;-72
2022/01/03 10:09:04;;;;;;;4.43;2.80;;;;;;;2.69;66.12;100334.59;10454221;28;20049;-75
2022/01/03 10:14:04;;;;;;;5.47;2.80;;;;;;;2.80;65.40;100348.66;10413398;28;20049;-78
2022/01/03 10:19:06;;;;;;;5.10;2.50;;;;;;;2.80;64.91;100262.94;10411604;28;20045;-76
2022/01/03 10:24:08;;;;;;;5.38;3.05;;;;;;;2.89;63.72;100316.47;10413437;28;20033;-78
2022/01/03 10:29:15;;;;;;;4.63;3.03;;;;;;;2.59;64.82;100296.06;10412743;28;20072;-74
2022/01/03 10:34:19;;;;;;;4.55;3.05;;;;;;;1.74;65.61;100200.25;10431970;28;20049;-76
2022/01/03 10:39:38;;;;;;;5.43;3.10;;;;;;;2.27;66.47;100297.59;10451262;28;20049;-77
2022/01/03 10:44:42;;;;;;;5.00;3.33;;;;;;;1.92;65.94;100254.84;10447423;28;20060;-77
2022/01/03 10:49:46;;;;;;;6.32;3.75;;;;;;;-0.03;65.78;99944.75;10450090;28;20473;-80
2022/01/03 10:55:07;;;;;;;5.25;3.28;;;;;;;2.41;66.79;100308.78;10451020;28;20049;-78
2022/01/03 11:00:38;;;;;;;6.55;3.67;;;;;;;2.36;67.61;100316.16;10441442;28;20045;-77
2022/01/03 11:05:47;;;;;;;5.45;3.65;;;;;;;2.34;68.00;100325.94;10436767;28;20045;-77
2022/01/03 11:10:50;;;;;;;6.28;3.88;;;;;;;1.89;67.72;100247.22;10439087;28;20064;-77
2022/01/03 11:16:03;;;;;;;6.35;4.03;;;;;;;2.47;67.66;100313.56;10437127;28;20046;-77
2022/01/03 11:21:14;;;;;;;8.55;4.88;;;;;;;1.98;68.73;100213.31;10438039;28;20048;-75
2022/01/03 11:26:18;;;;;;;6.85;4.65;;;;;;;2.68;68.50;100296.19;10445886;28;20408;-77
2022/01/03 11:31:20;;;;;;;;;;;;;;;2.81;69.09;100313.59;10441372;28;20032;-73
2022/01/03 11:36:23;;;;;;;6.53;4.38;;;;;;;2.23;68.53;100258.59;10446595;28;20364;-75
2022/01/03 11:41:24;;;;;;;6.05;3.70;;;;;;;2.47;68.17;100324.06;10445003;28;20056;-76
2022/01/03 11:46:25;;;;;;;6.28;3.67;;;;;;;0.98;68.05;100114.31;10448460;28;20056;-75
2022/01/03 11:51:35;;;;;;;7.07;3.47;;;;;;;2.06;68.59;100280.81;10449192;28;20044;-73
2022/01/03 11:56:42;;;;;;;5.60;3.60;;;;;;;1.93;68.29;100264.38;10456437;28;20127;-74
2022/01/03 12:07:13;;;;;;;10.50;4.45;;;;;;;2.25;69.13;100303.88;10452108;28;20044;-75
2022/01/03 12:12:34;;;;;;;7.70;4.28;;;;;;;2.16;69.02;100292.31;10444366;28;20113;-74
2022/01/03 12:17:44;;;;;;;9.10;4.05;;;;;;;2.17;68.56;100312.31;10452855;28;20044;-74
2022/01/03 12:22:53;;;;;;;8.07;4.28;;;;;;;2.17;69.48;100312.31;10454869;28;20524;-74
2022/01/03 12:27:58;;;;;;;5.90;4.20;;;;;;;2.04;68.91;100293.22;10447906;28;20045;-74
2022/01/03 12:33:08;;;;;;;6.65;4.53;;;;;;;2.17;68.76;100301.00;10422520;28;20067;-74
2022/01/03 12:38:10;;;;;;;19.65;12.73;;;;;;;2.14;69.46;100288.97;10418217;28;20057;-73
2022/01/03 12:43:12;;;;;;;12.38;5.32;;;;;;;1.44;69.60;100176.38;10425462;28;20063;-73
2022/01/03 12:48:18;;;;;;;9.85;5.40;;;;;;;1.46;69.26;100174.47;10456091;28;20198;-77
2022/01/03 12:53:28;;;;;;;5.90;4.07;;;;;;;0.62;68.97;100028.00;10418538;28;20053;-74
2022/01/03 12:58:29;;;;;;;7.78;4.75;;;;;;;1.14;69.72;100110.47;10416432;28;20037;-75
2022/01/03 13:03:46;;;;;;;5.78;4.28;;;;;;;2.02;70.19;100261.06;10415654;28;20045;-79
2022/01/03 13:08:56;;;;;;;7.53;3.90;;;;;;;1.98;70.13;100257.00;10416331;28;20508;-70
2022/01/03 13:14:01;;;;;;;5.53;3.60;;;;;;;1.89;71.28;100231.50;10454624;28;20041;-71
2022/01/03 13:19:04;;;;;;;5.45;3.70;;;;;;;1.68;71.62;100205.13;10457609;28;20045;-72
2022/01/03 13:24:23;;;;;;;5.18;3.65;;;;;;;1.74;71.54;100213.34;10457720;28;20040;-72
2022/01/03 13:29:25;;;;;;;5.55;3.88;;;;;;;1.51;72.57;100186.25;10456915;28;20131;-72
2022/01/03 13:34:29;;;;;;;10.52;3.67;;;;;;;1.79;72.80;100213.81;10456325;28;20041;-73
2022/01/03 13:39:33;;;;;;;5.80;3.65;;;;;;;1.75;73.05;100214.19;10443558;28;20048;-71
2022/01/03 13:49:55;;;;;;;5.63;4.00;;;;;;;1.40;74.01;100164.44;10456267;28;20068;-72
2022/01/03 13:55:00;;;;;;;8.48;3.72;;;;;;;1.29;74.69;100166.09;10450774;28;20041;-72
2022/01/03 14:00:06;;;;;;;6.45;4.10;;;;;;;0.96;75.19;100113.59;10413631;28;20067;-74
2022/01/03 14:05:07;;;;;;;7.07;4.45;;;;;;;0.26;75.64;100018.44;10432145;28;20517;-75
2022/01/03 14:10:08;;;;;;;8.80;4.18;;;;;;;0.67;75.71;100079.94;10437637;28;20051;-75
2022/01/03 14:15:09;;;;;;;7.50;4.72;;;;;;;0.85;75.72;100106.53;10446513;28;20048;-75
2022/01/03 14:20:11;;;;;;;9.05;5.63;;;;;;;0.98;75.82;100146.53;10445939;28;20035;-75
2022/01/03 14:25:15;;;;;;;9.68;6.32;;;;;;;1.41;76.31;100205.38;10438092;28;20037;-75
2022/01/03 14:30:17;;;;;;;8.50;5.90;;;;;;;1.34;76.44;100184.88;10438063;28;20536;-75
2022/01/03 14:35:34;;;;;;;8.75;5.68;;;;;;;1.11;77.50;100134.25;10443677;28;20045;-73
2022/01/03 14:40:50;;;;;;;9.88;6.13;;;;;;;0.35;77.94;100019.53;10440705;28;20037;-76
2022/01/03 14:45:53;;;;;;;7.55;5.57;;;;;;;1.30;77.56;100190.47;10436752;28;20555;-76
2022/01/03 14:51:09;;;;;;;10.03;5.90;;;;;;;1.34;77.97;100192.72;10448084;28;20103;-76
2022/01/03 14:56:31;;;;;;;7.90;5.38;;;;;;;1.33;77.97;100177.97;10444987;28;20286;-75
2022/01/03 15:01:31;;;;;;;11.68;5.50;;;;;;;0.55;77.91;100046.88;10425607;28;20046;-76
2022/01/03 15:06:32;;;;;;;8.43;5.78;;;;;;;1.17;78.38;100143.44;10435667;28;20128;-76
2022/01/03 15:11:33;;;;;;;10.25;5.95;;;;;;;1.09;78.54;100149.22;10418278;28;20124;-76
2022/01/03 15:16:34;;;;;;;9.07;5.88;;;;;;;0.88;78.15;100109.75;10458134;28;20041;-77
2022/01/03 15:21:38;;;;;;;8.50;5.53;;;;;;;0.68;78.57;100060.69;10433796;28;20037;-76
2022/01/03 15:26:39;;;;;;;10.05;6.50;;;;;;;-0.03;78.52;99950.84;10434508;28;20044;-77
2022/01/03 15:31:40;;;;;;;10.05;5.38;;;;;;;1.13;78.95;100134.94;10451575;28;20047;-76
2022/01/03 15:36:41;;;;;;;8.85;5.57;;;;;;;0.53;78.96;100049.56;10449335;28;20045;-74
2022/01/03 15:41:42;;;;;;;13.75;6.15;;;;;;;0.89;78.52;100087.88;10424773;28;20416;-78
2022/01/03 15:46:44;;;;;;;9.63;6.05;;;;;;;0.58;79.74;100020.50;10434204;28;20057;-75
2022/01/03 15:51:45;;;;;;;8.75;5.72;;;;;;;0.78;79.53;100048.63;10432034;28;20045;-76
2022/01/03 15:56:46;;;;;;;8.10;5.50;;;;;;;0.80;79.92;100030.22;10435130;28;20416;-77
2022/01/03 16:01:47;;;;;;;7.82;5.05;;;;;;;0.19;80.39;99916.16;10423855;28;20045;-73
2022/01/03 16:06:50;;;;;;;9.88;4.95;;;;;;;0.61;81.21;99996.75;10440811;28;20049;-76
2022/01/03 16:11:50;;;;;;;9.05;6.13;;;;;;;0.81;81.32;100017.03;10424932;28;20055;-75
2022/01/03 16:16:51;;;;;;;8.25;5.88;;;;;;;-0.13;81.43;99866.28;10426728;28;20420;-76
2022/01/03 16:21:52;;;;;;;8.75;5.90;;;;;;;-1.82;81.73;99567.28;10443725;28;20159;-75
2022/01/03 16:26:53;;;;;;;11.32;7.75;;;;;;;-0.71;81.49;99727.00;10423677;28;20388;-75
2022/01/03 16:31:55;;;;;;;11.30;7.90;;;;;;;0.42;82.60;99879.69;10429496;28;20041;-78
2022/01/03 16:36:56;;;;;;;14.07;8.68;;;;;;;0.07;82.73;99817.81;10429232;28;20041;-77
2022/01/03 16:41:57;;;;;;;12.95;8.88;;;;;;;0.99;83.49;99967.75;10447469;28;20048;-75
2022/01/03 16:46:58;;;;;;;12.32;8.43;;;;;;;-0.35;82.83;99712.19;10442913;28;20071;-74
2022/01/03 16:51:59;;;;;;;12.90;8.60;;;;;;;1.00;83.19;99911.03;10438242;28;20051;-75
2022/01/03 16:57:00;;;;;;;13.77;9.15;;;;;;;0.11;83.87;99740.91;10443888;28;20043;-76
2022/01/03 17:02:01;;;;;;;13.95;9.73;;;;;;;0.37;83.81;99772.88;10433641;28;20055;-75
2022/01/03 17:07:02;;;;;;;14.82;9.10;;;;;;;-0.68;84.35;99619.84;10437304;28;20436;-75
2022/01/03 17:12:04;;;;;;;17.60;9.18;;;;;;;0.56;84.76;99763.63;10444946;28;20460;-75
2022/01/03 17:17:05;;;;;;;15.82;9.52;;;;;;;0.94;85.20;99843.50;10440020;28;20049;-75
2022/01/03 17:22:06;;;;;;;14.00;9.25;;;;;;;0.17;84.86;99713.47;10440402;28;20044;-75
2022/01/03 17:27:07;;;;;;;14.40;9.40;;;;;;;0.77;85.53;99795.94;10444428;28;20045;-79
2022/01/03 17:32:09;;;;;;;14.80;9.68;;;;;;;-1.15;85.57;99472.97;10437053;28;20037;-76
2022/01/03 17:37:10;;;;;;;12.57;8.45;;;;;;;0.22;85.80;99680.00;10436621;28;20052;-77
2022/01/03 17:42:11;;;;;;;13.73;9.02;;;;;;;0.30;85.36;99669.81;10448801;28;20052;-78
2022/01/03 17:47:16;;;;;;;15.35;9.27;;;;;;;1.01;85.53;99779.31;10449023;28;20398;-79
2022/01/03 17:52:17;;;;;;;;;;;;;;;1.10;84.55;99794.28;10449358;28;20048;-80
2022/01/03 17:57:17;;;;;;;14.93;9.52;;;;;;;-0.43;85.26;99534.50;10453123;28;20308;-79
2022/01/03 18:02:18;;;;;;;14.48;9.00;;;;;;;-0.37;85.26;99562.72;10455041;28;20044;-78
2022/01/03 18:07:20;;;;;;;14.13;8.52;;;;;;;0.19;85.08;99647.13;10455696;28;20393;-79
2022/01/03 18:12:21;;;;;;;14.30;9.10;;;;;;;1.30;85.13;99838.00;10455245;28;20043;-79
2022/01/03 18:17:24;;;;;;;12.05;8.27;;;;;;;0.64;84.85;99727.28;10454844;28;20041;-80
2022/01/03 18:22:25;;;;;;;15.00;8.95;;;;;;;1.01;84.47;99745.31;10429207;28;20123;-81
2022/01/03 18:27:26;;;;;;;14.98;8.88;;;;;;;1.21;84.14;99741.94;10433857;28;20037;-81
2022/01/03 18:32:27;;;;;;;13.80;9.45;;;;;;;1.26;84.46;99763.34;10450567;28;20416;-79
2022/01/03 18:37:28;;;;;;;12.32;8.52;;;;;;;0.42;84.58;99624.44;10452411;28;20123;-80
2022/01/03 18:42:30;;;;;;;12.93;8.27;;;;;;;1.43;84.56;99779.47;10451596;28;20166;-80
2022/01/03 18:47:32;;;;;;;13.25;8.27;;;;;;;1.41;84.21;99783.97;10451762;28;20060;-80
2022/01/03 18:52:33;;;;;;;13.27;8.45;;;;;;;1.01;84.59;99721.75;10451295;28;20048;-80
2022/01/03 18:57:34;;;;;;;14.00;9.45;;;;;;;1.37;84.13;99770.31;10450613;28;20115;-79
2022/01/03 19:02:35;;;;;;;14.55;9.13;;;;;;;1.10;83.97;99744.56;10447370;28;20072;-79
2022/01/03 19:07:38;;;;;;;15.30;8.85;;;;;;;0.45;84.36;99612.91;10450714;28;20048;-81
2022/01/03 19:12:39;;;;;;;13.57;8.93;;;;;;;0.35;84.53;99593.69;10416959;28;20107;-79
2022/01/03 19:17:40;;;;;;;12.63;8.45;;;;;;;1.36;83.74;99763.44;10411966;28;20087;-79
2022/01/03 19:22:41;;;;;;;12.82;8.45;;;;;;;1.24;83.87;99719.94;10411595;28;20029;-79
2022/01/03 19:27:42;;;;;;;15.32;9.27;;;;;;;0.08;83.92;99513.09;10415180;28;20444;-79
2022/01/03 19:37:59;;;;;;;12.65;7.82;;;;;;;1.41;83.87;99703.69;10449840;28;20033;-80
2022/01/03 19:43:04;;;;;;;14.05;8.70;;;;;;;0.52;83.94;99555.75;10428806;28;20077;-79
2022/01/03 19:48:08;;;;;;;13.77;9.35;;;;;;;0.71;83.83;99576.84;10411982;28;20119;-78
2022/01/03 19:53:09;;;;;;;14.47;8.57;;;;;;;0.96;83.89;99624.53;10411616;28;20037;-78
2022/01/03 19:58:10;;;;;;;14.27;8.50;;;;;;;1.20;83.28;99664.41;10412432;28;20064;-78
2022/01/03 20:03:12;;;;;;;13.93;8.35;;;;;;;0.53;83.49;99547.78;10416079;28;20140;-78
2022/01/03 20:08:13;;;;;;;14.18;9.20;;;;;;;1.47;83.77;99702.38;10419348;28;20037;-78
2022/01/03 20:13:15;;;;;;;15.32;9.23;;;;;;;0.55;83.12;99538.03;10418982;28;20091;-78
2022/01/03 20:18:16;;;;;;;12.00;9.10;;;;;;;0.71;83.49;99555.09;10419101;28;20049;-78
2022/01/03 20:23:17;;;;;;;15.48;9.23;;;;;;;1.56;83.43;99693.75;10418232;28;20088;-78
2022/01/03 20:28:20;;;;;;;13.82;8.55;;;;;;;1.21;83.07;99584.13;10417985;28;20088;-78
2022/01/03 20:33:21;;;;;;;15.25;9.48;;;;;;;0.99;82.91;99540.59;10416649;28;20080;-78
2022/01/03 20:38:22;;;;;;;12.95;8.93;;;;;;;0.07;83.04;99388.72;10417753;28;20450;-78
2022/01/03 20:43:25;;;;;;;12.77;8.35;;;;;;;0.19;82.69;99400.78;10415745;28;20128;-80
2022/01/03 20:48:26;;;;;;;12.48;8.70;;;;;;;0.84;82.59;99513.94;10416092;28;20053;-80
2022/01/03 20:53:28;;;;;;;14.15;9.45;;;;;;;1.48;82.89;99601.94;10417126;28;20041;-79
2022/01/03 20:58:28;;;;;;;11.93;7.97;;;;;;;1.23;83.12;99582.22;10416792;28;20047;-79
2022/01/03 21:03:29;;;;;;;13.68;9.00;;;;;;;0.90;83.01;99524.72;10417152;28;20378;-79
2022/01/03 21:08:31;;;;;;;16.60;9.05;;;;;;;1.54;83.35;99590.97;10416968;28;20068;-79
2022/01/03 21:13:32;;;;;;;12.52;8.48;;;;;;;1.09;82.91;99507.50;10415488;28;20041;-79
2022/01/03 21:18:33;;;;;;;14.77;9.40;;;;;;;0.54;83.19;99420.56;10414966;28;20088;-80
2022/01/03 21:23:34;;;;;;;13.38;8.75;;;;;;;1.19;83.80;99529.31;10416326;28;20071;-80
2022/01/03 21:28:35;;;;;;;16.98;10.18;;;;;;;0.84;84.18;99459.88;10415490;28;20501;-79
2022/01/03 21:33:36;;;;;;;17.45;9.35;;;;;;;1.11;84.86;99514.28;10414346;28;20494;-78
2022/01/03 21:38:37;;;;;;;15.52;9.38;;;;;;;0.67;84.26;99445.56;10413614;28;20041;-78
2022/01/03 21:43:38;;;;;;;14.82;9.50;;;;;;;0.02;84.49;99338.66;10416256;28;20052;-79
2022/01/03 21:48:38;;;;;;;14.48;9.18;;;;;;;0.63;84.91;99443.34;10415118;28;20152;-78
2022/01/03 21:53:39;;;;;;;15.15;9.70;;;;;;;0.04;85.05;99352.41;10414139;28;20053;-79
2022/01/03 21:58:40;;;;;;;15.90;10.02;;;;;;;0.76;84.54;99428.28;10414492;28;20428;-79
2022/01/03 22:03:41;;;;;;;14.95;9.82;;;;;;;0.35;84.41;99371.63;10414573;28;20440;-79
2022/01/03 22:08:42;;;;;;;16.95;10.18;;;;;;;1.23;84.50;99538.56;10413689;28;20038;-79
2022/01/03 22:13:43;;;;;;;15.95;9.23;;;;;;;1.68;84.20;99577.53;10414740;28;20041;-79
2022/01/03 22:18:44;;;;;;;13.98;9.57;;;;;;;1.48;83.75;99523.44;10413443;28;20069;-79
2022/01/03 22:23:45;;;;;;;14.98;9.43;;;;;;;1.00;83.86;99441.09;10413068;28;20457;-80
2022/01/03 22:28:46;;;;;;;15.48;8.80;;;;;;;0.80;83.60;99413.16;10412962;28;20393;-80
2022/01/03 22:33:47;;;;;;;16.98;10.05;;;;;;;1.58;84.06;99542.63;10412838;28;20037;-80
2022/01/03 22:38:48;;;;;;;15.52;9.45;;;;;;;1.71;83.39;99532.78;10413824;28;20156;-79
2022/01/03 22:43:49;;;;;;;17.63;9.80;;;;;;;1.46;83.70;99501.78;10412042;28;20134;-79
2022/01/03 22:48:50;;;;;;;14.20;8.65;;;;;;;0.99;83.12;99401.97;10413522;28;20571;-80
2022/01/03 22:53:50;;;;;;;14.63;8.82;;;;;;;1.16;82.61;99396.16;10411853;28;20528;-79
2022/01/03 22:58:52;;;;;;;14.38;7.90;;;;;;;1.57;82.75;99441.50;10412526;28;20043;-78
2022/01/03 23:03:53;;;;;;;13.32;8.45;;;;;;;1.57;83.16;99462.44;10412749;28;20045;-78
2022/01/03 23:08:54;;;;;;;14.73;7.32;;;;;;;0.93;83.76;99353.69;10413417;28;20045;-77
2022/01/03 23:13:55;;;;;;;15.38;8.70;;;;;;;0.86;83.57;99353.34;10411927;28;20052;-78
2022/01/03 23:18:57;;;;;;;14.38;10.10;;;;;;;1.42;84.59;99450.66;10412500;28;20482;-78
2022/01/03 23:23:58;;;;;;;15.65;10.10;;;;;;;1.38;84.97;99431.78;10412500;28;20073;-78
2022/01/03 23:29:02;;;;;;;19.08;9.88;;;;;;;0.12;84.47;99224.63;10412324;28;20508;-78
2022/01/03 23:34:11;;;;;;;18.53;10.27;;;;;;;1.29;84.30;99404.63;10413004;28;20049;-78
2022/01/03 23:39:11;;;;;;;16.67;9.70;;;;;;;0.73;84.55;99282.16;10418562;28;20051;-78
2022/01/03 23:44:12;;;;;;;11.27;6.78;;;;;;;0.72;83.33;99253.53;10419616;28;20152;-76
2022/01/03 23:49:13;;;;;;;11.98;5.85;;;;;;;1.62;82.56;99383.53;10418289;28;20536;-79